createdAt,value
2022-10-18T00:00:54.315Z,15.05
2022-10-18T00:03:21.541Z,14.25
2022-10-18T00:05:49.094Z,14.73
2022-10-18T00:08:17.201Z,13.73
2022-10-18T00:10:44.496Z,11.98
2022-10-18T00:13:11.353Z,11.90
2022-10-18T00:15:38.268Z,11.90
2022-10-18T00:18:05.398Z,12.88
2022-10-18T00:20:32.253Z,12.02
2022-10-18T00:22:59.142Z,12.80
2022-10-18T00:25:26.252Z,12.50
2022-10-18T00:27:53.087Z,12.85
2022-10-18T00:30:19.950Z,13.02
2022-10-18T00:32:47.077Z,12.88
2022-10-18T00:35:13.974Z,12.55
2022-10-18T00:37:40.840Z,13.15
2022-10-18T00:40:08.397Z,12.37
2022-10-18T00:42:36.421Z,12.75
2022-10-18T00:45:16.418Z,13.20
2022-10-18T00:47:46.127Z,13.00
2022-10-18T00:50:13.522Z,12.27
2022-10-18T00:52:50.190Z,12.35
2022-10-18T00:55:17.753Z,11.88
2022-10-18T00:57:46.384Z,11.10
2022-10-18T01:00:14.013Z,12.25
2022-10-18T01:02:42.358Z,11.43
2022-10-18T01:05:11.633Z,11.55
2022-10-18T01:08:01.717Z,11.77
2022-10-18T01:10:58.122Z,11.52
2022-10-18T01:14:01.239Z,11.12
2022-10-18T01:16:39.031Z,12.10
2022-10-18T01:19:30.917Z,13.13
2022-10-18T01:22:04.453Z,12.40
2022-10-18T01:24:55.383Z,12.73
2022-10-18T01:27:36.268Z,13.18
2022-10-18T01:30:42.098Z,12.82
2022-10-18T01:33:28.090Z,12.70
2022-10-18T01:36:04.018Z,12.23
2022-10-18T01:38:32.246Z,12.40
2022-10-18T01:41:00.586Z,13.05
2022-10-18T01:43:28.737Z,12.13
2022-10-18T01:45:56.774Z,11.88
2022-10-18T01:48:23.948Z,11.88
2022-10-18T01:50:52.325Z,12.00
2022-10-18T01:53:30.282Z,11.70
2022-10-18T01:56:10.682Z,12.70
2022-10-18T01:58:45.116Z,12.80
2022-10-18T02:01:20.059Z,12.13
2022-10-18T02:03:48.014Z,11.65
2022-10-18T02:06:22.095Z,12.82
2022-10-18T02:08:57.597Z,12.43
2022-10-18T02:11:25.018Z,11.70
2022-10-18T02:13:55.070Z,13.15
2022-10-18T02:16:26.134Z,11.93
2022-10-18T02:19:20.828Z,13.45
2022-10-18T02:21:48.528Z,12.23
2022-10-18T02:24:19.469Z,11.75
2022-10-18T02:26:49.119Z,12.95
2022-10-18T02:29:19.338Z,13.13
2022-10-18T02:31:50.359Z,12.88
2022-10-18T02:34:27.779Z,12.70
2022-10-18T02:36:58.517Z,13.90
2022-10-18T02:39:30.415Z,13.68
2022-10-18T02:41:57.801Z,14.15
2022-10-18T02:44:24.720Z,12.93
2022-10-18T02:46:52.114Z,12.90
2022-10-18T02:49:18.966Z,14.48
2022-10-18T02:51:48.598Z,13.75
2022-10-18T02:54:18.798Z,13.17
2022-10-18T02:56:48.787Z,12.27
2022-10-18T02:59:15.897Z,14.20
2022-10-18T03:01:43.989Z,13.43
2022-10-18T03:04:11.007Z,12.43
2022-10-18T03:06:38.114Z,14.10
2022-10-18T03:09:05.919Z,14.30
2022-10-18T03:11:32.862Z,13.13
2022-10-18T03:13:59.987Z,14.25
2022-10-18T03:16:27.416Z,14.75
2022-10-18T03:18:54.249Z,13.27
2022-10-18T03:21:21.382Z,13.10
2022-10-18T03:23:48.226Z,14.05
2022-10-18T03:26:15.070Z,12.40
2022-10-18T03:28:42.216Z,12.77
2022-10-18T03:31:09.093Z,13.10
2022-10-18T03:33:35.968Z,14.05
2022-10-18T03:36:03.198Z,13.65
2022-10-18T03:38:30.180Z,13.57
2022-10-18T03:40:57.099Z,12.25
2022-10-18T03:43:24.231Z,12.63
2022-10-18T03:45:51.407Z,13.13
2022-10-18T03:48:18.278Z,13.10
2022-10-18T03:50:45.489Z,14.50
2022-10-18T03:53:12.399Z,14.18
2022-10-18T03:55:39.380Z,14.07
2022-10-18T03:58:06.696Z,12.70
2022-10-18T04:00:33.647Z,14.25
2022-10-18T04:03:00.770Z,15.60
2022-10-18T04:05:30.634Z,13.75
2022-10-18T04:07:57.923Z,13.13
2022-10-18T04:10:25.557Z,12.95
2022-10-18T04:12:52.435Z,13.93
2022-10-18T04:15:19.380Z,16.95
2022-10-18T04:17:46.755Z,16.45
2022-10-18T04:20:13.764Z,15.57
2022-10-18T04:22:40.704Z,15.20
2022-10-18T04:25:07.994Z,14.43
2022-10-18T04:27:35.619Z,13.85
2022-10-18T04:30:02.634Z,17.02
2022-10-18T04:32:29.794Z,16.25
2022-10-18T04:34:56.663Z,17.02
2022-10-18T04:37:23.567Z,16.77
2022-10-18T04:39:53.510Z,16.25
2022-10-18T04:42:21.650Z,17.15
2022-10-18T04:44:48.572Z,20.42
2022-10-18T04:47:16.373Z,16.37
2022-10-18T04:49:43.274Z,14.48
2022-10-18T04:52:10.198Z,14.75
2022-10-18T04:54:37.385Z,15.02
2022-10-18T04:57:04.291Z,15.93
2022-10-18T04:59:31.140Z,15.95
2022-10-18T05:01:58.331Z,15.02
2022-10-18T05:04:25.394Z,15.40
2022-10-18T05:06:52.260Z,14.73
2022-10-18T05:09:19.475Z,17.12
2022-10-18T05:11:46.321Z,17.30
2022-10-18T05:14:15.480Z,17.17
2022-10-18T05:16:42.587Z,15.88
2022-10-18T05:19:09.875Z,15.73
2022-10-18T05:21:36.724Z,15.52
2022-10-18T05:24:04.162Z,15.90
2022-10-18T05:26:31.046Z,16.87
2022-10-18T05:28:58.002Z,17.37
2022-10-18T05:31:25.179Z,17.23
2022-10-18T05:33:52.039Z,20.60
2022-10-18T05:36:18.928Z,20.30
2022-10-18T05:38:47.920Z,16.98
2022-10-18T05:41:14.830Z,17.08
2022-10-18T05:43:41.694Z,16.83
2022-10-18T05:46:13.646Z,18.00
2022-10-18T05:48:43.979Z,15.60
2022-10-18T05:51:11.559Z,18.12
2022-10-18T05:53:38.564Z,16.30
2022-10-18T05:56:06.365Z,15.57
2022-10-18T05:58:34.054Z,15.77
2022-10-18T06:01:01.996Z,16.95
2022-10-18T06:03:30.864Z,17.87
2022-10-18T06:06:07.249Z,21.92
2022-10-18T06:08:35.072Z,17.23
2022-10-18T06:11:15.248Z,18.08
2022-10-18T06:13:43.663Z,16.17
2022-10-18T06:16:11.711Z,16.20
2022-10-18T06:18:38.665Z,16.60
2022-10-18T06:21:06.388Z,14.55
2022-10-18T06:23:33.278Z,15.73
2022-10-18T06:26:01.951Z,14.90
2022-10-18T06:28:29.776Z,15.00
2022-10-18T06:30:57.672Z,16.87
2022-10-18T06:33:24.845Z,15.15
2022-10-18T06:36:03.474Z,16.92
2022-10-18T06:38:30.474Z,14.55
2022-10-18T06:40:58.305Z,16.02
2022-10-18T06:43:25.640Z,15.32
2022-10-18T06:45:53.047Z,15.32
2022-10-18T06:50:54.514Z,14.57
2022-10-18T06:53:21.664Z,16.73
2022-10-18T06:55:48.506Z,16.90
2022-10-18T06:58:15.411Z,16.35
2022-10-18T07:00:42.581Z,16.58
2022-10-18T07:03:09.473Z,16.40
2022-10-18T07:05:36.324Z,16.20
2022-10-18T07:08:03.644Z,15.45
2022-10-18T07:10:30.484Z,13.77
2022-10-18T07:13:13.525Z,14.63
2022-10-18T07:15:44.473Z,14.57
2022-10-18T07:18:11.390Z,14.05
2022-10-18T07:20:38.248Z,14.98
2022-10-18T07:23:08.444Z,13.50
2022-10-18T07:25:35.832Z,14.38
2022-10-18T07:28:02.787Z,13.90
2022-10-18T07:30:29.937Z,15.55
2022-10-18T07:32:56.804Z,14.35
2022-10-18T07:35:23.731Z,13.27
2022-10-18T07:37:50.903Z,14.18
2022-10-18T07:40:17.826Z,13.77
2022-10-18T07:42:44.679Z,13.68
2022-10-18T07:45:12.646Z,12.93
2022-10-18T07:47:40.096Z,12.88
2022-10-18T07:50:07.610Z,14.45
2022-10-18T07:52:34.750Z,12.20
2022-10-18T07:55:01.609Z,12.85
2022-10-18T07:57:28.464Z,11.12
2022-10-18T07:59:57.065Z,11.77
2022-10-18T08:02:24.331Z,11.98
2022-10-18T08:04:51.454Z,11.75
2022-10-18T08:07:18.327Z,11.18
2022-10-18T08:09:45.228Z,11.77
2022-10-18T08:12:12.401Z,10.60
2022-10-18T08:14:39.294Z,11.95
2022-10-18T08:17:06.140Z,11.32
2022-10-18T08:19:33.246Z,11.48
2022-10-18T08:22:00.138Z,11.82
2022-10-18T08:24:26.983Z,10.75
2022-10-18T08:26:54.144Z,12.15
2022-10-18T08:29:24.941Z,11.10
2022-10-18T08:31:54.054Z,10.60
2022-10-18T08:34:20.918Z,10.95
2022-10-18T08:36:47.772Z,11.40
2022-10-18T08:39:18.057Z,11.27
2022-10-18T08:42:10.281Z,10.77
2022-10-18T08:44:44.852Z,10.48
2022-10-18T08:47:17.964Z,10.95
2022-10-18T08:50:07.177Z,10.85
2022-10-18T08:53:04.591Z,10.63
2022-10-18T08:55:54.982Z,10.07
2022-10-18T08:58:24.743Z,9.90
2022-10-18T09:01:07.023Z,9.93
2022-10-18T09:03:55.407Z,10.05
2022-10-18T09:06:36.040Z,10.57
2022-10-18T09:12:21.474Z,9.40
2022-10-18T09:15:06.613Z,9.20
2022-10-18T09:18:02.321Z,9.10
2022-10-18T09:21:07.999Z,8.82
2022-10-18T09:24:14.494Z,9.27
2022-10-18T09:27:09.104Z,9.02
2022-10-18T09:30:28.390Z,8.82
2022-10-18T09:33:33.648Z,8.45
2022-10-18T09:36:23.010Z,9.27
2022-10-18T09:39:18.534Z,8.38
2022-10-18T09:42:16.750Z,8.32
2022-10-18T09:45:39.524Z,8.23
2022-10-18T09:48:30.394Z,7.97
2022-10-18T09:51:21.973Z,11.20
2022-10-18T09:54:25.895Z,8.73
2022-10-18T09:57:21.589Z,18.58
2022-10-18T10:00:21.051Z,11.30
2022-10-18T10:03:15.670Z,10.70
2022-10-18T10:06:17.345Z,10.57
2022-10-18T10:09:26.667Z,8.02
2022-10-18T10:12:26.608Z,7.00
2022-10-18T10:15:28.205Z,8.32
2022-10-18T10:18:21.180Z,19.27
2022-10-18T10:21:13.834Z,7.32
2022-10-18T10:24:00.465Z,6.32
2022-10-18T10:26:50.566Z,6.30
2022-10-18T10:29:47.378Z,7.00
2022-10-18T10:32:49.575Z,7.62
2022-10-18T10:35:54.287Z,10.30
2022-10-18T10:38:41.373Z,7.50
2022-10-18T10:41:28.092Z,7.03
2022-10-18T10:44:35.974Z,6.45
2022-10-18T10:47:32.706Z,8.88
2022-10-18T10:50:25.828Z,5.90
2022-10-18T10:53:36.375Z,14.98
2022-10-18T10:56:36.018Z,6.55
2022-10-18T10:59:24.244Z,6.30
2022-10-18T11:02:14.255Z,5.78
2022-10-18T11:05:23.788Z,5.57
2022-10-18T11:08:12.291Z,5.95
2022-10-18T11:11:05.250Z,5.37
2022-10-18T11:14:13.586Z,6.80
2022-10-18T11:16:56.925Z,5.68
2022-10-18T11:19:38.925Z,6.25
2022-10-18T11:22:12.023Z,5.22
2022-10-18T11:24:39.607Z,5.62
2022-10-18T11:27:13.471Z,5.12
2022-10-18T11:29:54.242Z,6.53
2022-10-18T11:32:30.313Z,6.47
2022-10-18T11:35:14.995Z,5.97
2022-10-18T11:37:53.676Z,5.78
2022-10-18T11:40:41.819Z,5.10
2022-10-18T11:43:30.106Z,5.45
2022-10-18T11:46:28.037Z,5.55
2022-10-18T11:49:08.811Z,5.15
2022-10-18T11:52:07.856Z,5.25
2022-10-18T11:54:56.871Z,5.35
2022-10-18T11:57:51.698Z,6.70
2022-10-18T12:00:29.046Z,5.15
2022-10-18T12:03:12.699Z,5.20
2022-10-18T12:05:41.716Z,5.62
2022-10-18T12:08:13.963Z,5.20
2022-10-18T12:11:03.915Z,4.82
2022-10-18T12:13:49.379Z,4.93
2022-10-18T12:16:18.267Z,6.75
2022-10-18T12:18:54.981Z,4.68
2022-10-18T12:21:25.752Z,4.22
2022-10-18T12:24:00.121Z,5.40
2022-10-18T12:26:28.377Z,5.18
2022-10-18T12:29:17.584Z,11.20
2022-10-18T12:31:51.220Z,6.78
2022-10-18T12:34:27.200Z,4.57
2022-10-18T12:37:09.344Z,4.62
2022-10-18T12:39:44.140Z,4.70
2022-10-18T12:42:30.051Z,4.47
2022-10-18T12:45:02.494Z,5.28
2022-10-18T12:47:30.433Z,4.80
2022-10-18T12:50:00.328Z,4.22
2022-10-18T12:52:29.849Z,4.40
2022-10-18T12:55:06.081Z,4.15
2022-10-18T12:57:51.595Z,4.50
2022-10-18T13:00:30.674Z,4.60
2022-10-18T13:03:12.722Z,3.90
2022-10-18T13:05:54.728Z,4.45
2022-10-18T13:08:28.394Z,5.62
2022-10-18T13:11:01.235Z,4.68
2022-10-18T13:13:51.736Z,3.65
2022-10-18T13:19:18.643Z,4.68
2022-10-18T13:22:10.360Z,4.43
2022-10-18T13:24:39.535Z,4.85
2022-10-18T13:27:37.644Z,4.30
2022-10-18T13:30:40.359Z,4.22
2022-10-18T13:33:30.837Z,5.07
2022-10-18T13:36:01.935Z,4.35
2022-10-18T13:38:37.626Z,4.40
2022-10-18T13:41:07.612Z,4.30
2022-10-18T13:43:52.926Z,5.60
2022-10-18T13:46:33.092Z,4.07
2022-10-18T13:49:01.498Z,5.00
2022-10-18T13:51:35.368Z,4.00
2022-10-18T13:54:04.990Z,4.43
2022-10-18T13:56:53.525Z,4.53
2022-10-18T14:02:22.425Z,5.68
2022-10-18T14:05:34.531Z,4.72
2022-10-18T14:08:12.320Z,6.93
2022-10-18T14:11:03.002Z,5.50
2022-10-18T14:13:43.970Z,5.22
2022-10-18T14:16:27.071Z,4.82
2022-10-18T14:19:00.954Z,4.90
2022-10-18T14:21:34.454Z,4.85
2022-10-18T14:24:01.435Z,6.30
2022-10-18T14:26:29.443Z,5.95
2022-10-18T14:29:06.947Z,4.30
2022-10-18T14:31:34.800Z,5.68
2022-10-18T14:34:01.736Z,4.68
2022-10-18T14:36:41.060Z,4.97
2022-10-18T14:39:18.696Z,4.55
2022-10-18T14:42:03.619Z,4.12
2022-10-18T14:44:32.171Z,5.20
2022-10-18T14:47:01.426Z,4.12
2022-10-18T14:49:28.494Z,4.85
2022-10-18T14:51:57.906Z,5.15
2022-10-18T14:54:31.838Z,8.75
2022-10-18T14:57:00.802Z,5.25
2022-10-18T14:59:30.504Z,5.43
2022-10-18T15:02:01.863Z,6.07
2022-10-18T15:04:35.276Z,5.72
2022-10-18T15:07:04.190Z,5.18
2022-10-18T15:09:33.845Z,5.32
2022-10-18T15:12:02.571Z,4.40
2022-10-18T15:14:30.121Z,5.12
2022-10-18T15:17:03.853Z,5.87
2022-10-18T15:19:42.225Z,6.70
2022-10-18T15:22:30.801Z,6.68
2022-10-18T15:25:18.561Z,8.27
2022-10-18T15:27:48.172Z,7.30
2022-10-18T15:30:24.691Z,7.40
2022-10-18T15:32:55.070Z,7.97
2022-10-18T15:35:32.082Z,9.02
2022-10-18T15:38:03.547Z,13.57
2022-10-18T15:40:33.570Z,13.43
2022-10-18T15:43:03.754Z,8.88
2022-10-18T15:45:33.833Z,7.55
2022-10-18T15:48:06.998Z,8.07
2022-10-18T15:50:41.466Z,8.75
2022-10-18T15:53:42.744Z,9.77
2022-10-18T15:56:28.861Z,68.68
2022-10-18T15:58:57.382Z,33.15
2022-10-18T16:01:33.425Z,18.73
2022-10-18T16:04:01.327Z,14.87
2022-10-18T16:06:28.514Z,14.50
2022-10-18T16:08:55.594Z,10.68
2022-10-18T16:11:26.213Z,16.50
2022-10-18T16:13:56.385Z,13.45
2022-10-18T16:16:28.115Z,13.68
2022-10-18T16:18:55.451Z,23.10
2022-10-18T16:21:25.533Z,30.67
2022-10-18T16:23:52.909Z,23.58
2022-10-18T16:26:20.526Z,21.48
2022-10-18T16:28:48.117Z,31.35
2022-10-18T16:31:20.611Z,30.25
2022-10-18T16:33:48.590Z,29.45
2022-10-18T16:36:21.303Z,24.42
2022-10-18T16:38:49.515Z,27.73
2022-10-18T16:43:45.531Z,23.27
2022-10-18T16:46:17.795Z,24.37
2022-10-18T16:48:45.938Z,26.92
2022-10-18T16:51:13.282Z,28.35
2022-10-18T16:53:40.148Z,26.83
2022-10-18T16:56:13.942Z,27.70
2022-10-18T16:58:41.357Z,25.08
2022-10-18T17:01:12.359Z,25.83
2022-10-18T17:03:39.362Z,25.85
2022-10-18T17:06:06.302Z,32.15
2022-10-18T17:08:33.490Z,32.13
2022-10-18T17:11:01.710Z,29.90
2022-10-18T17:13:28.609Z,27.77
2022-10-18T17:15:55.795Z,32.83
2022-10-18T17:18:26.463Z,34.17
2022-10-18T17:20:53.582Z,30.92
2022-10-18T17:23:20.687Z,31.20
2022-10-18T17:25:59.146Z,32.08
2022-10-18T17:28:34.251Z,33.92
2022-10-18T17:31:01.167Z,33.45
2022-10-18T17:33:28.015Z,41.10
2022-10-18T17:35:55.146Z,39.47
2022-10-18T17:38:22.018Z,39.38
2022-10-18T17:40:48.901Z,50.85
2022-10-18T17:43:15.997Z,49.35
2022-10-18T17:45:48.116Z,58.08
2022-10-18T17:48:17.483Z,98.72
2022-10-18T17:50:44.417Z,106.80
2022-10-18T17:53:12.886Z,60.28
2022-10-18T17:55:40.342Z,56.20
2022-10-18T17:58:07.204Z,55.83
2022-10-18T18:00:34.336Z,54.88
2022-10-18T18:03:01.982Z,56.42
2022-10-18T18:05:33.534Z,59.13
2022-10-18T18:08:03.807Z,62.20
2022-10-18T18:10:34.977Z,56.60
2022-10-18T18:13:02.524Z,52.53
2022-10-18T18:15:29.422Z,50.55
2022-10-18T18:17:57.849Z,49.15
2022-10-18T18:20:25.986Z,49.17
2022-10-18T18:22:53.039Z,50.15
2022-10-18T18:25:20.253Z,53.15
2022-10-18T18:27:47.165Z,49.38
2022-10-18T18:30:15.496Z,49.60
2022-10-18T18:32:42.685Z,49.72
2022-10-18T18:35:10.219Z,50.75
2022-10-18T18:37:37.214Z,47.22
2022-10-18T18:40:04.581Z,45.63
2022-10-18T18:42:32.363Z,47.40
2022-10-18T18:44:59.509Z,47.13
2022-10-18T18:47:27.651Z,47.90
2022-10-18T18:49:54.489Z,49.15
2022-10-18T18:52:21.461Z,47.55
2022-10-18T18:54:48.574Z,50.70
2022-10-18T18:57:16.912Z,48.80
2022-10-18T18:59:43.797Z,48.92
2022-10-18T19:02:10.927Z,48.22
2022-10-18T19:04:38.054Z,46.85
2022-10-18T19:07:04.903Z,46.22
2022-10-18T19:09:32.750Z,46.50
2022-10-18T19:11:59.589Z,44.63
2022-10-18T19:14:26.446Z,44.13
2022-10-18T19:16:55.115Z,44.05
2022-10-18T19:19:23.700Z,43.35
2022-10-18T19:21:52.967Z,48.72
2022-10-18T19:24:21.764Z,49.63
2022-10-18T19:26:59.534Z,48.65
2022-10-18T19:29:32.164Z,49.50
2022-10-18T19:32:01.195Z,46.85
2022-10-18T19:34:48.070Z,47.67
2022-10-18T19:37:15.620Z,46.42
2022-10-18T19:39:42.898Z,45.25
2022-10-18T19:42:17.422Z,45.33
2022-10-18T19:44:47.685Z,45.12
2022-10-18T19:47:14.675Z,42.97
2022-10-18T19:49:44.601Z,39.72
2022-10-18T19:52:12.446Z,41.35
2022-10-18T19:54:39.656Z,38.83
2022-10-18T19:57:06.956Z,36.97
2022-10-18T19:59:35.902Z,39.80
2022-10-18T20:02:04.914Z,36.10
2022-10-18T20:04:34.757Z,37.35
2022-10-18T20:07:02.801Z,32.10
2022-10-18T20:09:29.828Z,31.30
2022-10-18T20:11:56.958Z,32.95
2022-10-18T20:14:23.890Z,32.42
2022-10-18T20:16:50.727Z,31.77
2022-10-18T20:19:17.813Z,32.58
2022-10-18T20:21:44.673Z,31.42
2022-10-18T20:24:11.870Z,34.00
2022-10-18T20:26:39.638Z,37.03
2022-10-18T20:29:07.742Z,41.30
2022-10-18T20:31:37.142Z,43.17
2022-10-18T20:34:09.977Z,43.10
2022-10-18T20:36:36.942Z,42.15
2022-10-18T20:39:04.938Z,44.53
2022-10-18T20:41:34.251Z,42.10
2022-10-18T20:44:04.546Z,44.00
2022-10-18T20:46:34.378Z,41.15
2022-10-18T20:49:01.524Z,40.85
2022-10-18T20:51:28.431Z,41.35
2022-10-18T20:53:55.541Z,41.37
2022-10-18T20:56:25.246Z,41.17
2022-10-18T20:58:54.885Z,39.97
2022-10-18T21:01:23.157Z,40.08
2022-10-18T21:03:51.851Z,39.40
2022-10-18T21:06:21.422Z,38.72
2022-10-18T21:09:01.742Z,36.73
2022-10-18T21:11:29.923Z,37.03
2022-10-18T21:14:02.764Z,33.70
2022-10-18T21:16:34.357Z,31.80
2022-10-18T21:19:22.687Z,33.92
2022-10-18T21:21:56.393Z,40.60
2022-10-18T21:24:24.750Z,36.77
2022-10-18T21:26:51.644Z,38.95
2022-10-18T21:29:22.783Z,37.53
2022-10-18T21:31:55.225Z,38.80
2022-10-18T21:34:22.280Z,34.88
2022-10-18T21:36:52.073Z,33.63
2022-10-18T21:41:51.128Z,31.77
2022-10-18T21:44:21.187Z,31.40
2022-10-18T21:46:51.166Z,30.75
2022-10-18T21:49:23.385Z,29.20
2022-10-18T21:51:50.690Z,31.98
2022-10-18T21:54:20.453Z,30.45
2022-10-18T21:56:51.147Z,32.20
2022-10-18T21:59:18.283Z,32.67
2022-10-18T22:01:48.015Z,34.85
2022-10-18T22:04:22.684Z,32.65
2022-10-18T22:06:50.007Z,31.67
2022-10-18T22:09:21.307Z,32.63
2022-10-18T22:11:52.919Z,31.60
2022-10-18T22:14:23.418Z,31.25
2022-10-18T22:16:50.795Z,31.40
2022-10-18T22:19:20.827Z,31.75
2022-10-18T22:21:50.990Z,30.88
2022-10-18T22:24:20.722Z,31.90
2022-10-18T22:26:51.176Z,37.88
2022-10-18T22:29:21.597Z,38.42
2022-10-18T22:34:27.560Z,38.80
2022-10-18T22:36:54.793Z,38.30
2022-10-18T22:39:21.861Z,37.03
2022-10-18T22:41:55.872Z,36.15
2022-10-18T22:44:23.482Z,34.83
2022-10-18T22:46:50.346Z,36.83
2022-10-18T22:49:20.298Z,34.67
2022-10-18T22:51:50.255Z,33.55
2022-10-18T22:54:19.883Z,32.80
2022-10-18T22:56:50.183Z,31.65
2022-10-18T22:59:20.320Z,31.50
2022-10-18T23:01:47.195Z,29.97
2022-10-18T23:04:14.047Z,29.70
2022-10-18T23:06:41.249Z,27.08
2022-10-18T23:09:10.670Z,25.75
2022-10-18T23:11:37.914Z,27.05
2022-10-18T23:14:06.159Z,27.35
2022-10-18T23:16:33.022Z,27.17
2022-10-18T23:18:59.890Z,26.05
2022-10-18T23:21:28.232Z,25.55
2022-10-18T23:23:55.683Z,25.70
2022-10-18T23:26:24.970Z,24.50
2022-10-18T23:28:53.247Z,25.83
2022-10-18T23:31:25.281Z,24.75
2022-10-18T23:33:54.152Z,23.83
2022-10-18T23:36:22.275Z,25.27
2022-10-18T23:38:49.440Z,25.00
2022-10-18T23:41:17.254Z,25.50
2022-10-18T23:43:44.701Z,26.23
2022-10-18T23:46:11.851Z,25.20
2022-10-18T23:48:39.175Z,25.15
2022-10-18T23:51:07.597Z,23.48
2022-10-18T23:53:34.628Z,24.92
2022-10-18T23:56:10.558Z,23.58
2022-10-18T23:58:37.857Z,23.87
